createdAt,value
2019-04-05T00:01:50.800Z,3.00
2019-04-05T00:07:06.383Z,3.90
2019-04-05T00:12:22.385Z,3.87
2019-04-05T00:17:38.087Z,3.17
2019-04-05T00:22:54.279Z,3.60
2019-04-05T00:28:10.136Z,3.77
2019-04-05T00:33:26.060Z,3.23
2019-04-05T00:38:41.911Z,3.90
2019-04-05T00:43:57.630Z,3.53
2019-04-05T00:49:13.569Z,3.73
2019-04-05T00:54:29.167Z,3.70
2019-04-05T00:59:44.762Z,3.40
2019-04-05T01:05:02.152Z,3.57
2019-04-05T01:10:18.618Z,3.50
2019-04-05T01:15:40.815Z,3.60
2019-04-05T01:20:52.844Z,3.60
2019-04-05T01:26:10.209Z,4.00
2019-04-05T01:31:26.230Z,3.97
2019-04-05T01:36:41.887Z,4.33
2019-04-05T01:41:57.782Z,3.83
2019-04-05T01:47:13.715Z,3.63
2019-04-05T01:52:29.387Z,4.33
2019-04-05T01:57:44.965Z,4.60
2019-04-05T02:03:00.618Z,4.47
2019-04-05T02:08:16.305Z,4.80
2019-04-05T02:13:31.911Z,4.00
2019-04-05T02:18:47.858Z,3.67
2019-04-05T02:24:03.567Z,3.87
2019-04-05T02:29:19.751Z,4.23
2019-04-05T02:34:35.739Z,4.00
2019-04-05T02:39:54.716Z,4.57
2019-04-05T02:45:11.669Z,3.90
2019-04-05T02:50:37.776Z,4.27
2019-04-05T02:55:54.831Z,4.63
2019-04-05T03:01:11.319Z,4.53
2019-04-05T03:06:27.842Z,4.23
2019-04-05T03:11:44.745Z,4.83
2019-04-05T03:17:01.547Z,4.33
2019-04-05T03:22:18.265Z,4.63
2019-04-05T03:27:37.303Z,4.00
2019-04-05T03:32:53.226Z,4.23
2019-04-05T03:38:09.444Z,4.03
2019-04-05T03:43:25.799Z,3.03
2019-04-05T03:48:41.630Z,4.00
2019-04-05T03:53:57.334Z,3.83
2019-04-05T03:59:13.999Z,4.13
2019-04-05T04:04:29.865Z,3.50
2019-04-05T04:09:46.042Z,4.10
2019-04-05T04:15:14.177Z,4.00
2019-04-05T04:20:43.174Z,3.93
2019-04-05T04:25:59.615Z,4.20
2019-04-05T04:31:16.005Z,4.17
2019-04-05T04:36:32.054Z,4.43
2019-04-05T04:41:47.507Z,4.23
2019-04-05T04:47:03.190Z,4.77
2019-04-05T04:52:19.843Z,3.97
2019-04-05T04:57:35.545Z,4.43
2019-04-05T05:02:52.046Z,4.07
2019-04-05T05:08:12.835Z,4.40
2019-04-05T05:13:28.572Z,4.40
2019-04-05T05:18:44.719Z,4.67
2019-04-05T05:24:00.881Z,4.50
2019-04-05T05:29:16.580Z,4.73
2019-04-05T05:34:32.634Z,4.50
2019-04-05T05:39:48.460Z,4.80
2019-04-05T05:45:04.209Z,4.20
2019-04-05T05:50:19.815Z,4.57
2019-04-05T05:55:39.953Z,4.70
2019-04-05T06:00:56.245Z,5.23
2019-04-05T06:06:11.476Z,4.97
2019-04-05T06:11:27.166Z,4.70
2019-04-05T06:16:46.521Z,4.87
2019-04-05T06:22:00.622Z,5.33
2019-04-05T06:27:16.158Z,5.03
2019-04-05T06:32:31.746Z,5.17
2019-04-05T06:37:47.125Z,5.63
2019-04-05T06:43:02.774Z,5.90
2019-04-05T06:48:19.775Z,6.10
2019-04-05T06:53:37.401Z,6.13
2019-04-05T06:58:53.221Z,5.87
2019-04-05T07:04:09.214Z,5.40
2019-04-05T07:09:25.888Z,5.97
2019-04-05T07:14:41.554Z,6.57
2019-04-05T07:19:57.466Z,6.57
2019-04-05T07:25:13.537Z,6.83
2019-04-05T07:30:29.597Z,7.20
2019-04-05T07:35:45.603Z,7.10
2019-04-05T07:41:01.498Z,7.87
2019-04-05T07:46:17.113Z,7.33
2019-04-05T07:51:32.908Z,7.93
2019-04-05T07:56:48.663Z,7.37
2019-04-05T08:02:04.534Z,8.47
2019-04-05T08:07:21.271Z,8.47
2019-04-05T08:12:37.856Z,8.13
2019-04-05T08:17:53.936Z,7.73
2019-04-05T08:23:09.636Z,8.57
2019-04-05T08:28:29.523Z,8.40
2019-04-05T08:33:44.390Z,8.93
2019-04-05T08:39:00.948Z,8.03
2019-04-05T08:44:18.028Z,8.90
2019-04-05T08:49:33.618Z,8.17
2019-04-05T08:54:49.455Z,8.93
2019-04-05T09:00:05.865Z,9.77
2019-04-05T09:05:26.359Z,9.13
2019-04-05T09:10:45.448Z,9.90
2019-04-05T09:16:01.649Z,9.83
2019-04-05T09:21:18.859Z,9.10
2019-04-05T09:26:37.965Z,9.77
2019-04-05T09:31:58.526Z,8.07
2019-04-05T09:37:14.467Z,8.40
2019-04-05T09:42:30.525Z,9.70
2019-04-05T09:47:46.181Z,9.00
2019-04-05T09:53:02.003Z,8.20
2019-04-05T09:58:17.652Z,8.40
2019-04-05T10:03:34.128Z,6.87
2019-04-05T10:08:52.475Z,8.20
2019-04-05T10:14:08.071Z,8.53
2019-04-05T10:19:23.918Z,8.57
2019-04-05T10:25:07.339Z,8.57
2019-04-05T10:30:23.655Z,8.33
2019-04-05T10:35:39.714Z,8.23
2019-04-05T10:40:55.893Z,7.80
2019-04-05T10:46:11.699Z,8.10
2019-04-05T10:51:27.584Z,8.30
2019-04-05T10:56:43.333Z,7.57
2019-04-05T11:01:59.363Z,7.27
2019-04-05T11:07:14.870Z,7.50
2019-04-05T11:12:30.645Z,7.93
2019-04-05T11:17:46.203Z,8.23
2019-04-05T11:23:02.412Z,6.87
2019-04-05T11:28:19.663Z,7.50
2019-04-05T11:33:35.919Z,6.67
2019-04-05T11:38:51.496Z,7.13
2019-04-05T11:44:07.239Z,7.57
2019-04-05T11:49:23.923Z,6.93
2019-04-05T11:54:40.054Z,7.37
2019-04-05T12:00:22.990Z,7.63
2019-04-05T12:05:38.845Z,7.33
2019-04-05T12:11:26.383Z,8.60
2019-04-05T12:16:56.845Z,7.50
2019-04-05T12:22:27.073Z,7.47
2019-04-05T12:27:42.971Z,8.23
2019-04-05T12:32:58.782Z,9.20
2019-04-05T12:38:32.483Z,6.87
2019-04-05T12:43:50.897Z,7.93
2019-04-05T12:49:06.921Z,8.57
2019-04-05T12:54:22.705Z,7.60
2019-04-05T12:59:39.879Z,7.77
2019-04-05T13:04:55.512Z,8.30
2019-04-05T13:10:12.726Z,7.20
2019-04-05T13:15:28.952Z,7.73
2019-04-05T13:20:48.384Z,6.57
2019-04-05T13:26:22.139Z,6.83
2019-04-05T13:31:38.245Z,6.70
2019-04-05T13:36:54.109Z,6.90
2019-04-05T13:42:12.953Z,6.53
2019-04-05T13:47:28.937Z,6.50
2019-04-05T13:52:45.202Z,6.60
2019-04-05T13:58:01.202Z,6.97
2019-04-05T14:03:21.186Z,6.60
2019-04-05T14:08:41.134Z,6.03
2019-04-05T14:13:54.644Z,6.00
2019-04-05T14:19:10.677Z,5.90
2019-04-05T14:24:26.594Z,6.10
2019-04-05T14:29:52.880Z,4.70
2019-04-05T14:35:39.886Z,6.50
2019-04-05T14:40:56.746Z,4.83
2019-04-05T14:46:12.344Z,4.90
2019-04-05T14:51:28.700Z,5.93
2019-04-05T14:56:45.988Z,4.77
2019-04-05T15:02:02.002Z,5.00
2019-04-05T15:07:20.945Z,4.93
2019-04-05T15:12:37.045Z,5.50
2019-04-05T15:17:52.919Z,4.87
2019-04-05T15:23:09.698Z,5.63
2019-04-05T15:28:25.943Z,5.00
2019-04-05T15:33:41.454Z,4.93
2019-04-05T15:39:01.107Z,4.50
2019-04-05T15:44:20.287Z,5.50
2019-04-05T15:49:36.299Z,5.10
2019-04-05T15:54:52.038Z,4.80
2019-04-05T16:00:11.399Z,4.13
2019-04-05T16:05:27.389Z,4.27
2019-04-05T16:10:45.558Z,5.07
2019-04-05T16:16:01.282Z,5.93
2019-04-05T16:21:17.025Z,6.47
2019-04-05T16:26:36.947Z,5.80
2019-04-05T16:31:55.102Z,6.30
2019-04-05T16:37:11.099Z,5.97
2019-04-05T16:42:26.844Z,6.33
2019-04-05T16:47:42.589Z,6.07
2019-04-05T16:53:00.067Z,6.13
2019-04-05T16:58:18.797Z,6.90
2019-04-05T17:03:41.798Z,6.50
2019-04-05T17:08:57.631Z,7.30
2019-04-05T17:14:15.260Z,6.50
2019-04-05T17:19:34.875Z,5.97
2019-04-05T17:24:51.859Z,7.07
2019-04-05T17:30:10.259Z,6.43
2019-04-05T17:35:26.890Z,8.17
2019-04-05T17:40:43.169Z,9.40
2019-04-05T17:45:59.287Z,9.27
2019-04-05T17:51:15.779Z,10.97
2019-04-05T18:01:55.319Z,9.90
2019-04-05T18:07:15.876Z,9.90
2019-04-05T18:12:35.368Z,9.03
2019-04-05T18:17:51.959Z,8.33
2019-04-05T18:23:07.785Z,9.40
2019-04-05T18:28:23.577Z,9.47
2019-04-05T18:33:39.532Z,8.63
2019-04-05T18:38:55.801Z,9.27
2019-04-05T18:44:14.515Z,8.17
2019-04-05T18:49:34.600Z,7.67
2019-04-05T18:54:50.766Z,8.53
2019-04-05T19:00:13.518Z,8.17
2019-04-05T19:05:30.530Z,8.47
2019-04-05T19:10:46.684Z,8.03
2019-04-05T19:16:02.866Z,9.30
2019-04-05T19:21:19.051Z,7.63
2019-04-05T19:26:37.822Z,7.97
2019-04-05T19:53:17.119Z,7.97
2019-04-05T19:58:32.861Z,7.23
2019-04-05T20:03:50.372Z,8.50
2019-04-05T20:09:08.980Z,7.87
2019-04-05T20:14:25.290Z,9.37
2019-04-05T20:19:44.648Z,8.53
2019-04-05T20:25:03.109Z,8.67
2019-04-05T20:30:18.996Z,7.43
2019-04-05T20:35:36.100Z,7.77
2019-04-05T20:40:51.739Z,6.77
2019-04-05T20:46:11.783Z,8.10
2019-04-05T20:51:31.255Z,8.13
2019-04-05T20:56:47.241Z,7.70
2019-04-05T21:02:02.970Z,8.27
2019-04-05T21:07:18.924Z,8.37
2019-04-05T21:12:34.999Z,7.80
2019-04-05T21:17:51.217Z,7.43
2019-04-05T21:23:07.205Z,7.53
2019-04-05T21:28:23.570Z,6.20
2019-04-05T21:33:40.085Z,6.90
2019-04-05T21:38:59.013Z,6.57
2019-04-05T21:44:15.883Z,7.43
2019-04-05T21:49:32.704Z,6.93
2019-04-05T21:54:49.988Z,6.40
2019-04-05T22:00:11.436Z,6.23
2019-04-05T22:05:29.351Z,7.27
2019-04-05T22:10:46.155Z,7.97
2019-04-05T22:16:03.660Z,7.33
2019-04-05T22:21:19.579Z,10.57
2019-04-05T22:26:36.725Z,11.00
2019-04-05T22:31:53.810Z,10.67
2019-04-05T22:37:09.706Z,10.10
2019-04-05T22:42:25.883Z,8.83
2019-04-05T22:47:43.988Z,9.47
2019-04-05T22:53:01.186Z,7.83
2019-04-05T22:58:17.231Z,8.87
2019-04-05T23:03:32.889Z,8.30
2019-04-05T23:08:48.654Z,11.23
2019-04-05T23:14:04.664Z,8.40
2019-04-05T23:19:20.684Z,9.00
2019-04-05T23:24:36.605Z,8.77
2019-04-05T23:29:52.364Z,8.77
2019-04-05T23:35:08.739Z,9.20
2019-04-05T23:40:25.027Z,8.87
2019-04-05T23:45:41.270Z,8.97
2019-04-05T23:50:57.362Z,9.17
2019-04-05T23:56:14.495Z,10.87
